sensor_id;sensor_type;location;lat;lon;timestamp;pressure;altitude;pressure_sealevel;temperature;humidity
77381;BME280;66439;50.106;10.996;2023-04-16T00:00:53;98458.67;;;9.85;73.73
77381;BME280;66439;50.106;10.996;2023-04-16T00:03:06;98467.39;;;9.86;73.68
77381;BME280;66439;50.106;10.996;2023-04-16T00:05:15;98463.58;;;9.89;73.66
77381;BME280;66439;50.106;10.996;2023-04-16T00:07:23;98463.10;;;9.90;73.74
77381;BME280;66439;50.106;10.996;2023-04-16T00:09:29;98469.27;;;9.90;73.67
77381;BME280;66439;50.106;10.996;2023-04-16T00:11:38;98463.56;;;9.90;73.67
77381;BME280;66439;50.106;10.996;2023-04-16T00:13:42;98461.84;;;9.90;73.71
77381;BME280;66439;50.106;10.996;2023-04-16T00:16:01;98463.88;;;9.89;73.57
77381;BME280;66439;50.106;10.996;2023-04-16T00:18:04;98461.92;;;9.88;73.75
77381;BME280;66439;50.106;10.996;2023-04-16T00:20:10;98463.27;;;9.87;73.85
77381;BME280;66439;50.106;10.996;2023-04-16T00:22:13;98463.05;;;9.86;73.81
77381;BME280;66439;50.106;10.996;2023-04-16T00:24:17;98464.33;;;9.85;73.83
77381;BME280;66439;50.106;10.996;2023-04-16T00:26:19;98463.35;;;9.88;73.80
77381;BME280;66439;50.106;10.996;2023-04-16T00:28:27;98460.13;;;9.90;73.61
77381;BME280;66439;50.106;10.996;2023-04-16T00:30:30;98467.35;;;9.91;73.51
77381;BME280;66439;50.106;10.996;2023-04-16T00:32:36;98464.17;;;9.91;73.75
77381;BME280;66439;50.106;10.996;2023-04-16T00:34:39;98464.17;;;9.91;73.73
77381;BME280;66439;50.106;10.996;2023-04-16T00:37:06;98459.60;;;9.91;73.68
77381;BME280;66439;50.106;10.996;2023-04-16T00:39:13;98463.80;;;9.90;73.59
77381;BME280;66439;50.106;10.996;2023-04-16T00:41:21;98459.36;;;9.88;73.69
77381;BME280;66439;50.106;10.996;2023-04-16T00:43:25;98460.73;;;9.87;73.62
77381;BME280;66439;50.106;10.996;2023-04-16T00:45:34;98464.43;;;9.86;73.86
77381;BME280;66439;50.106;10.996;2023-04-16T00:47:40;98465.62;;;9.84;73.86
77381;BME280;66439;50.106;10.996;2023-04-16T00:49:45;98465.88;;;9.83;74.16
77381;BME280;66439;50.106;10.996;2023-04-16T00:51:51;98467.83;;;9.86;73.90
77381;BME280;66439;50.106;10.996;2023-04-16T00:53:58;98464.41;;;9.88;73.72
77381;BME280;66439;50.106;10.996;2023-04-16T00:56:06;98466.86;;;9.89;73.88
77381;BME280;66439;50.106;10.996;2023-04-16T00:58:09;98466.25;;;9.90;73.75
77381;BME280;66439;50.106;10.996;2023-04-16T01:00:20;98466.87;;;9.91;73.77
77381;BME280;66439;50.106;10.996;2023-04-16T01:02:45;98467.80;;;9.90;73.88
77381;BME280;66439;50.106;10.996;2023-04-16T01:04:49;98472.63;;;9.90;73.70
77381;BME280;66439;50.106;10.996;2023-04-16T01:06:57;98469.73;;;9.89;73.82
77381;BME280;66439;50.106;10.996;2023-04-16T01:09:01;98470.79;;;9.88;73.81
77381;BME280;66439;50.106;10.996;2023-04-16T01:11:06;98469.52;;;9.88;73.91
77381;BME280;66439;50.106;10.996;2023-04-16T01:13:09;98470.20;;;9.89;73.87
77381;BME280;66439;50.106;10.996;2023-04-16T01:15:12;98467.31;;;9.91;73.82
77381;BME280;66439;50.106;10.996;2023-04-16T01:17:16;98467.30;;;9.93;73.78
77381;BME280;66439;50.106;10.996;2023-04-16T01:19:24;98466.34;;;9.94;73.70
77381;BME280;66439;50.106;10.996;2023-04-16T01:21:28;98470.38;;;9.94;73.79
77381;BME280;66439;50.106;10.996;2023-04-16T01:23:33;98472.48;;;9.93;73.83
77381;BME280;66439;50.106;10.996;2023-04-16T01:25:37;98473.12;;;9.92;73.89
77381;BME280;66439;50.106;10.996;2023-04-16T01:27:41;98473.52;;;9.91;73.94
77381;BME280;66439;50.106;10.996;2023-04-16T01:29:44;98476.27;;;9.91;73.88
77381;BME280;66439;50.106;10.996;2023-04-16T01:31:53;98476.34;;;9.90;73.69
77381;BME280;66439;50.106;10.996;2023-04-16T01:34:06;98479.14;;;9.89;73.83
77381;BME280;66439;50.106;10.996;2023-04-16T01:36:09;98474.05;;;9.90;73.78
77381;BME280;66439;50.106;10.996;2023-04-16T01:38:14;98477.33;;;9.91;73.59
77381;BME280;66439;50.106;10.996;2023-04-16T01:40:17;98477.11;;;9.91;73.84
77381;BME280;66439;50.106;10.996;2023-04-16T01:42:20;98473.27;;;9.90;73.74
77381;BME280;66439;50.106;10.996;2023-04-16T01:44:24;98473.11;;;9.90;73.79
77381;BME280;66439;50.106;10.996;2023-04-16T01:46:28;98471.73;;;9.90;73.78
77381;BME280;66439;50.106;10.996;2023-04-16T01:48:31;98472.93;;;9.89;73.72
77381;BME280;66439;50.106;10.996;2023-04-16T01:50:37;98481.52;;;9.89;73.94
77381;BME280;66439;50.106;10.996;2023-04-16T01:52:40;98478.18;;;9.88;73.87
77381;BME280;66439;50.106;10.996;2023-04-16T01:54:43;98478.89;;;9.86;73.88
77381;BME280;66439;50.106;10.996;2023-04-16T01:56:46;98479.27;;;9.85;73.73
77381;BME280;66439;50.106;10.996;2023-04-16T01:58:51;98477.59;;;9.86;73.76
77381;BME280;66439;50.106;10.996;2023-04-16T02:00:54;98475.59;;;9.86;73.69
77381;BME280;66439;50.106;10.996;2023-04-16T02:02:58;98473.52;;;9.87;73.72
77381;BME280;66439;50.106;10.996;2023-04-16T02:05:01;98478.36;;;9.86;73.91
77381;BME280;66439;50.106;10.996;2023-04-16T02:07:05;98473.74;;;9.85;73.91
77381;BME280;66439;50.106;10.996;2023-04-16T02:09:08;98476.37;;;9.84;73.75
77381;BME280;66439;50.106;10.996;2023-04-16T02:11:12;98476.80;;;9.82;73.82
77381;BME280;66439;50.106;10.996;2023-04-16T02:13:16;98477.14;;;9.80;74.06
77381;BME280;66439;50.106;10.996;2023-04-16T02:15:22;98476.92;;;9.79;74.00
77381;BME280;66439;50.106;10.996;2023-04-16T02:17:33;98479.04;;;9.78;74.04
77381;BME280;66439;50.106;10.996;2023-04-16T02:19:42;98480.80;;;9.78;74.27
77381;BME280;66439;50.106;10.996;2023-04-16T02:21:45;98481.81;;;9.81;74.07
77381;BME280;66439;50.106;10.996;2023-04-16T02:23:48;98482.25;;;9.84;74.05
77381;BME280;66439;50.106;10.996;2023-04-16T02:25:57;98482.80;;;9.85;73.85
77381;BME280;66439;50.106;10.996;2023-04-16T02:28:00;98483.95;;;9.86;73.98
77381;BME280;66439;50.106;10.996;2023-04-16T02:30:10;98484.33;;;9.85;73.90
77381;BME280;66439;50.106;10.996;2023-04-16T02:32:14;98488.27;;;9.85;73.98
77381;BME280;66439;50.106;10.996;2023-04-16T02:34:19;98485.62;;;9.85;73.94
77381;BME280;66439;50.106;10.996;2023-04-16T02:36:23;98487.24;;;9.85;74.00
77381;BME280;66439;50.106;10.996;2023-04-16T02:38:26;98487.44;;;9.83;73.89
77381;BME280;66439;50.106;10.996;2023-04-16T02:40:30;98489.33;;;9.82;73.93
77381;BME280;66439;50.106;10.996;2023-04-16T02:42:33;98488.83;;;9.80;73.93
77381;BME280;66439;50.106;10.996;2023-04-16T02:44:36;98484.11;;;9.82;73.93
77381;BME280;66439;50.106;10.996;2023-04-16T02:46:39;98486.58;;;9.83;73.85
77381;BME280;66439;50.106;10.996;2023-04-16T02:48:42;98486.91;;;9.85;73.80
77381;BME280;66439;50.106;10.996;2023-04-16T02:50:45;98488.77;;;9.85;73.84
77381;BME280;66439;50.106;10.996;2023-04-16T02:52:51;98490.42;;;9.86;73.87
77381;BME280;66439;50.106;10.996;2023-04-16T02:55:01;98489.95;;;9.86;73.93
77381;BME280;66439;50.106;10.996;2023-04-16T02:57:23;98491.07;;;9.84;73.91
77381;BME280;66439;50.106;10.996;2023-04-16T02:59:26;98491.42;;;9.83;73.98
77381;BME280;66439;50.106;10.996;2023-04-16T03:01:30;98490.57;;;9.82;74.08
77381;BME280;66439;50.106;10.996;2023-04-16T03:03:37;98487.65;;;9.81;74.00
77381;BME280;66439;50.106;10.996;2023-04-16T03:05:41;98489.71;;;9.80;74.05
77381;BME280;66439;50.106;10.996;2023-04-16T03:07:45;98491.09;;;9.82;73.98
77381;BME280;66439;50.106;10.996;2023-04-16T03:09:54;98491.52;;;9.85;73.85
77381;BME280;66439;50.106;10.996;2023-04-16T03:11:57;98491.89;;;9.86;73.95
77381;BME280;66439;50.106;10.996;2023-04-16T03:14:01;98494.59;;;9.87;73.93
77381;BME280;66439;50.106;10.996;2023-04-16T03:16:05;98497.82;;;9.88;73.76
77381;BME280;66439;50.106;10.996;2023-04-16T03:18:11;98492.18;;;9.88;73.85
77381;BME280;66439;50.106;10.996;2023-04-16T03:20:16;98495.73;;;9.88;73.80
77381;BME280;66439;50.106;10.996;2023-04-16T03:22:20;98493.69;;;9.87;73.83
77381;BME280;66439;50.106;10.996;2023-04-16T03:24:26;98498.14;;;9.87;73.87
77381;BME280;66439;50.106;10.996;2023-04-16T03:26:32;98501.20;;;9.86;73.89
77381;BME280;66439;50.106;10.996;2023-04-16T03:28:38;98500.31;;;9.85;73.70
77381;BME280;66439;50.106;10.996;2023-04-16T03:30:41;98508.27;;;9.86;73.63
77381;BME280;66439;50.106;10.996;2023-04-16T03:32:44;98508.01;;;9.89;73.80
77381;BME280;66439;50.106;10.996;2023-04-16T03:34:47;98509.05;;;9.90;73.69
77381;BME280;66439;50.106;10.996;2023-04-16T03:36:50;98507.79;;;9.90;73.68
77381;BME280;66439;50.106;10.996;2023-04-16T03:38:53;98509.30;;;9.91;73.71
77381;BME280;66439;50.106;10.996;2023-04-16T03:40:57;98506.31;;;9.91;73.68
77381;BME280;66439;50.106;10.996;2023-04-16T03:43:01;98510.98;;;9.91;73.67
77381;BME280;66439;50.106;10.996;2023-04-16T03:45:05;98512.40;;;9.90;73.59
77381;BME280;66439;50.106;10.996;2023-04-16T03:47:12;98512.98;;;9.90;73.72
77381;BME280;66439;50.106;10.996;2023-04-16T03:49:22;98514.77;;;9.90;73.87
77381;BME280;66439;50.106;10.996;2023-04-16T03:51:25;98513.67;;;9.88;73.89
77381;BME280;66439;50.106;10.996;2023-04-16T03:53:29;98514.45;;;9.91;74.02
77381;BME280;66439;50.106;10.996;2023-04-16T03:55:33;98511.91;;;9.93;73.77
77381;BME280;66439;50.106;10.996;2023-04-16T03:57:37;98517.16;;;9.95;74.04
77381;BME280;66439;50.106;10.996;2023-04-16T03:59:43;98516.31;;;9.96;74.02
77381;BME280;66439;50.106;10.996;2023-04-16T04:01:45;98518.71;;;9.95;73.75
77381;BME280;66439;50.106;10.996;2023-04-16T04:03:51;98519.56;;;9.94;73.90
77381;BME280;66439;50.106;10.996;2023-04-16T04:06:08;98522.23;;;9.92;73.68
77381;BME280;66439;50.106;10.996;2023-04-16T04:08:15;98523.23;;;9.91;73.90
77381;BME280;66439;50.106;10.996;2023-04-16T04:10:18;98526.30;;;9.91;73.81
77381;BME280;66439;50.106;10.996;2023-04-16T04:12:22;98529.23;;;9.90;73.80
77381;BME280;66439;50.106;10.996;2023-04-16T04:14:25;98527.34;;;9.90;73.64
77381;BME280;66439;50.106;10.996;2023-04-16T04:16:32;98533.73;;;9.91;73.71
77381;BME280;66439;50.106;10.996;2023-04-16T04:18:38;98533.71;;;9.93;73.69
77381;BME280;66439;50.106;10.996;2023-04-16T04:20:41;98537.73;;;9.93;73.59
77381;BME280;66439;50.106;10.996;2023-04-16T04:22:44;98541.36;;;9.94;73.62
77381;BME280;66439;50.106;10.996;2023-04-16T04:24:49;98539.73;;;9.94;73.78
77381;BME280;66439;50.106;10.996;2023-04-16T04:26:53;98541.78;;;9.95;73.66
77381;BME280;66439;50.106;10.996;2023-04-16T04:28:56;98536.80;;;9.95;73.62
77381;BME280;66439;50.106;10.996;2023-04-16T04:31:01;98539.71;;;9.95;73.72
77381;BME280;66439;50.106;10.996;2023-04-16T04:33:04;98542.58;;;9.95;74.00
77381;BME280;66439;50.106;10.996;2023-04-16T04:35:08;98540.73;;;9.94;73.78
77381;BME280;66439;50.106;10.996;2023-04-16T04:37:11;98542.52;;;9.95;73.68
77381;BME280;66439;50.106;10.996;2023-04-16T04:39:16;98541.73;;;9.97;73.65
77381;BME280;66439;50.106;10.996;2023-04-16T04:41:19;98540.65;;;9.98;73.54
77381;BME280;66439;50.106;10.996;2023-04-16T04:43:32;98547.02;;;10.00;73.51
77381;BME280;66439;50.106;10.996;2023-04-16T04:45:52;98553.17;;;10.00;73.70
77381;BME280;66439;50.106;10.996;2023-04-16T04:47:55;98554.91;;;10.01;73.71
77381;BME280;66439;50.106;10.996;2023-04-16T04:49:58;98550.50;;;10.00;73.69
77381;BME280;66439;50.106;10.996;2023-04-16T04:52:02;98551.30;;;10.00;73.63
77381;BME280;66439;50.106;10.996;2023-04-16T04:54:06;98553.27;;;9.99;73.59
77381;BME280;66439;50.106;10.996;2023-04-16T04:56:10;98550.09;;;9.98;73.73
77381;BME280;66439;50.106;10.996;2023-04-16T04:58:15;98557.42;;;9.97;73.53
77381;BME280;66439;50.106;10.996;2023-04-16T05:00:20;98557.17;;;9.96;73.48
77381;BME280;66439;50.106;10.996;2023-04-16T05:02:31;98556.00;;;9.97;73.60
77381;BME280;66439;50.106;10.996;2023-04-16T05:04:39;98559.23;;;10.00;73.68
77381;BME280;66439;50.106;10.996;2023-04-16T05:06:46;98558.10;;;10.01;73.70
77381;BME280;66439;50.106;10.996;2023-04-16T05:08:49;98559.42;;;10.00;73.72
77381;BME280;66439;50.106;10.996;2023-04-16T05:10:55;98562.16;;;9.99;73.78
77381;BME280;66439;50.106;10.996;2023-04-16T05:13:02;98564.55;;;9.98;73.79
77381;BME280;66439;50.106;10.996;2023-04-16T05:15:06;98566.65;;;9.97;73.72
77381;BME280;66439;50.106;10.996;2023-04-16T05:17:09;98566.25;;;9.94;73.57
77381;BME280;66439;50.106;10.996;2023-04-16T05:19:12;98566.83;;;9.92;73.82
77381;BME280;66439;50.106;10.996;2023-04-16T05:21:15;98565.45;;;9.92;73.62
77381;BME280;66439;50.106;10.996;2023-04-16T05:23:18;98571.05;;;9.91;73.85
77381;BME280;66439;50.106;10.996;2023-04-16T05:25:23;98567.17;;;9.91;73.76
77381;BME280;66439;50.106;10.996;2023-04-16T05:27:26;98566.04;;;9.92;73.72
77381;BME280;66439;50.106;10.996;2023-04-16T05:29:31;98569.42;;;9.93;73.85
77381;BME280;66439;50.106;10.996;2023-04-16T05:31:34;98570.09;;;9.93;73.97
77381;BME280;66439;50.106;10.996;2023-04-16T05:33:37;98572.73;;;9.93;73.89
77381;BME280;66439;50.106;10.996;2023-04-16T05:35:40;98573.39;;;9.94;73.90
77381;BME280;66439;50.106;10.996;2023-04-16T05:37:43;98573.52;;;9.94;73.95
77381;BME280;66439;50.106;10.996;2023-04-16T05:39:47;98579.05;;;9.95;73.99
77381;BME280;66439;50.106;10.996;2023-04-16T05:41:56;98581.60;;;9.95;74.02
77381;BME280;66439;50.106;10.996;2023-04-16T05:44:02;98584.84;;;9.91;73.83
77381;BME280;66439;50.106;10.996;2023-04-16T05:46:05;98585.52;;;9.86;73.97
77381;BME280;66439;50.106;10.996;2023-04-16T05:48:13;98583.80;;;9.82;74.03
77381;BME280;66439;50.106;10.996;2023-04-16T05:50:21;98586.16;;;9.82;74.02
77381;BME280;66439;50.106;10.996;2023-04-16T05:52:25;98591.01;;;9.81;74.12
77381;BME280;66439;50.106;10.996;2023-04-16T05:54:28;98593.53;;;9.81;74.18
77381;BME280;66439;50.106;10.996;2023-04-16T05:56:31;98598.44;;;9.81;74.25
77381;BME280;66439;50.106;10.996;2023-04-16T05:58:36;98605.87;;;9.81;74.43
77381;BME280;66439;50.106;10.996;2023-04-16T06:00:39;98614.80;;;9.84;74.22
77381;BME280;66439;50.106;10.996;2023-04-16T06:02:42;98616.30;;;9.83;74.36
77381;BME280;66439;50.106;10.996;2023-04-16T06:04:47;98615.95;;;9.83;74.40
77381;BME280;66439;50.106;10.996;2023-04-16T06:06:51;98614.14;;;9.83;74.45
77381;BME280;66439;50.106;10.996;2023-04-16T06:08:55;98617.38;;;9.84;74.49
77381;BME280;66439;50.106;10.996;2023-04-16T06:11:01;98620.83;;;9.88;74.43
77381;BME280;66439;50.106;10.996;2023-04-16T06:13:05;98621.47;;;9.92;74.72
77381;BME280;66439;50.106;10.996;2023-04-16T06:15:11;98625.73;;;9.96;74.61
77381;BME280;66439;50.106;10.996;2023-04-16T06:17:15;98629.75;;;9.99;74.59
77381;BME280;66439;50.106;10.996;2023-04-16T06:19:18;98629.89;;;9.99;74.56
77381;BME280;66439;50.106;10.996;2023-04-16T06:21:21;98632.16;;;10.01;74.51
77381;BME280;66439;50.106;10.996;2023-04-16T06:23:37;98633.43;;;10.01;74.41
77381;BME280;66439;50.106;10.996;2023-04-16T06:25:40;98636.79;;;10.00;74.35
77381;BME280;66439;50.106;10.996;2023-04-16T06:27:47;98636.77;;;10.00;74.55
77381;BME280;66439;50.106;10.996;2023-04-16T06:29:55;98638.69;;;9.98;74.22
77381;BME280;66439;50.106;10.996;2023-04-16T06:32:00;98639.21;;;9.96;74.43
77381;BME280;66439;50.106;10.996;2023-04-16T06:34:04;98642.51;;;9.94;74.28
77381;BME280;66439;50.106;10.996;2023-04-16T06:36:09;98645.61;;;9.95;74.29
77381;BME280;66439;50.106;10.996;2023-04-16T06:38:15;98648.27;;;9.95;74.29
77381;BME280;66439;50.106;10.996;2023-04-16T06:40:20;98650.20;;;9.95;74.40
77381;BME280;66439;50.106;10.996;2023-04-16T06:42:23;98653.80;;;9.93;74.37
77381;BME280;66439;50.106;10.996;2023-04-16T06:44:34;98657.13;;;9.92;74.51
77381;BME280;66439;50.106;10.996;2023-04-16T06:46:46;98656.59;;;9.92;74.63
77381;BME280;66439;50.106;10.996;2023-04-16T06:48:54;98659.69;;;9.93;74.67
77381;BME280;66439;50.106;10.996;2023-04-16T06:51:01;98661.84;;;9.94;74.67
77381;BME280;66439;50.106;10.996;2023-04-16T06:53:08;98664.98;;;9.96;74.56
77381;BME280;66439;50.106;10.996;2023-04-16T06:55:12;98669.65;;;10.00;74.68
77381;BME280;66439;50.106;10.996;2023-04-16T06:57:14;98673.16;;;10.03;74.50
77381;BME280;66439;50.106;10.996;2023-04-16T06:59:17;98674.80;;;10.08;74.64
77381;BME280;66439;50.106;10.996;2023-04-16T07:01:20;98679.18;;;10.09;74.58
77381;BME280;66439;50.106;10.996;2023-04-16T07:03:24;98679.93;;;10.11;74.61
77381;BME280;66439;50.106;10.996;2023-04-16T07:05:29;98679.92;;;10.12;74.61
77381;BME280;66439;50.106;10.996;2023-04-16T07:07:32;98681.75;;;10.12;74.60
77381;BME280;66439;50.106;10.996;2023-04-16T07:09:37;98682.33;;;10.10;74.52
77381;BME280;66439;50.106;10.996;2023-04-16T07:11:43;98683.11;;;10.09;74.49
77381;BME280;66439;50.106;10.996;2023-04-16T07:13:46;98686.58;;;10.10;74.69
77381;BME280;66439;50.106;10.996;2023-04-16T07:15:50;98687.92;;;10.12;74.61
77381;BME280;66439;50.106;10.996;2023-04-16T07:18:02;98688.45;;;10.15;74.47
77381;BME280;66439;50.106;10.996;2023-04-16T07:20:14;98693.19;;;10.16;74.52
77381;BME280;66439;50.106;10.996;2023-04-16T07:22:19;98693.97;;;10.17;74.58
77381;BME280;66439;50.106;10.996;2023-04-16T07:24:25;98693.16;;;10.18;74.74
77381;BME280;66439;50.106;10.996;2023-04-16T07:26:28;98697.33;;;10.20;74.77
77381;BME280;66439;50.106;10.996;2023-04-16T07:28:35;98698.67;;;10.22;74.74
77381;BME280;66439;50.106;10.996;2023-04-16T07:30:42;98698.93;;;10.25;74.75
77381;BME280;66439;50.106;10.996;2023-04-16T07:32:45;98699.91;;;10.26;74.65
77381;BME280;66439;50.106;10.996;2023-04-16T07:34:52;98702.52;;;10.28;74.63
77381;BME280;66439;50.106;10.996;2023-04-16T07:36:58;98703.74;;;10.31;74.65
77381;BME280;66439;50.106;10.996;2023-04-16T07:39:03;98703.63;;;10.32;74.59
77381;BME280;66439;50.106;10.996;2023-04-16T07:41:13;98704.46;;;10.36;74.67
77381;BME280;66439;50.106;10.996;2023-04-16T07:43:18;98704.37;;;10.38;74.68
77381;BME280;66439;50.106;10.996;2023-04-16T07:45:23;98701.05;;;10.40;74.60
77381;BME280;66439;50.106;10.996;2023-04-16T07:47:30;98705.35;;;10.43;74.49
77381;BME280;66439;50.106;10.996;2023-04-16T07:49:36;98702.06;;;10.45;74.59
77381;BME280;66439;50.106;10.996;2023-04-16T07:51:39;98705.66;;;10.48;74.67
77381;BME280;66439;50.106;10.996;2023-04-16T07:53:53;98705.04;;;10.50;74.63
77381;BME280;66439;50.106;10.996;2023-04-16T07:55:57;98703.30;;;10.51;74.50
77381;BME280;66439;50.106;10.996;2023-04-16T07:58:00;98708.88;;;10.55;74.38
77381;BME280;66439;50.106;10.996;2023-04-16T08:00:05;98704.89;;;10.57;74.29
77381;BME280;66439;50.106;10.996;2023-04-16T08:02:17;98707.23;;;10.58;74.02
77381;BME280;66439;50.106;10.996;2023-04-16T08:04:41;98707.55;;;10.57;73.91
77381;BME280;66439;50.106;10.996;2023-04-16T08:06:45;98712.10;;;10.58;74.12
77381;BME280;66439;50.106;10.996;2023-04-16T08:08:50;98716.52;;;10.59;74.11
77381;BME280;66439;50.106;10.996;2023-04-16T08:10:53;98719.15;;;10.59;74.30
77381;BME280;66439;50.106;10.996;2023-04-16T08:13:00;98722.16;;;10.61;74.18
77381;BME280;66439;50.106;10.996;2023-04-16T08:15:05;98726.34;;;10.59;74.26
77381;BME280;66439;50.106;10.996;2023-04-16T08:17:10;98725.78;;;10.60;74.61
77381;BME280;66439;50.106;10.996;2023-04-16T08:19:17;98727.95;;;10.66;74.48
77381;BME280;66439;50.106;10.996;2023-04-16T08:21:21;98733.08;;;10.72;74.25
77381;BME280;66439;50.106;10.996;2023-04-16T08:23:24;98731.75;;;10.77;74.12
77381;BME280;66439;50.106;10.996;2023-04-16T08:25:28;98737.31;;;10.81;74.30
77381;BME280;66439;50.106;10.996;2023-04-16T08:27:32;98739.29;;;10.84;73.92
77381;BME280;66439;50.106;10.996;2023-04-16T08:29:34;98741.42;;;10.84;73.63
77381;BME280;66439;50.106;10.996;2023-04-16T08:31:38;98743.14;;;10.84;73.67
77381;BME280;66439;50.106;10.996;2023-04-16T08:33:45;98744.87;;;10.86;73.51
77381;BME280;66439;50.106;10.996;2023-04-16T08:35:48;98749.98;;;10.86;73.33
77381;BME280;66439;50.106;10.996;2023-04-16T08:37:52;98749.38;;;10.87;73.35
77381;BME280;66439;50.106;10.996;2023-04-16T08:39:56;98753.36;;;10.90;73.56
77381;BME280;66439;50.106;10.996;2023-04-16T08:42:04;98751.52;;;10.93;73.51
77381;BME280;66439;50.106;10.996;2023-04-16T08:44:08;98755.15;;;10.95;73.40
77381;BME280;66439;50.106;10.996;2023-04-16T08:46:15;98757.17;;;10.97;73.40
77381;BME280;66439;50.106;10.996;2023-04-16T08:48:20;98757.86;;;10.99;73.40
77381;BME280;66439;50.106;10.996;2023-04-16T08:50:25;98763.30;;;10.99;73.45
77381;BME280;66439;50.106;10.996;2023-04-16T08:52:40;98763.88;;;10.99;73.42
77381;BME280;66439;50.106;10.996;2023-04-16T08:57:18;98768.29;;;11.02;73.18
77381;BME280;66439;50.106;10.996;2023-04-16T08:59:21;98772.08;;;11.01;73.00
77381;BME280;66439;50.106;10.996;2023-04-16T09:01:25;98774.08;;;11.00;72.70
77381;BME280;66439;50.106;10.996;2023-04-16T09:03:30;98775.79;;;11.00;72.66
77381;BME280;66439;50.106;10.996;2023-04-16T09:05:38;98779.30;;;10.99;72.46
77381;BME280;66439;50.106;10.996;2023-04-16T09:07:43;98784.30;;;11.00;72.50
77381;BME280;66439;50.106;10.996;2023-04-16T09:09:47;98785.73;;;11.03;72.51
77381;BME280;66439;50.106;10.996;2023-04-16T09:11:52;98790.65;;;11.06;72.51
77381;BME280;66439;50.106;10.996;2023-04-16T09:13:56;98791.77;;;11.12;72.69
77381;BME280;66439;50.106;10.996;2023-04-16T09:15:59;98790.30;;;11.16;72.68
77381;BME280;66439;50.106;10.996;2023-04-16T09:18:03;98793.73;;;11.20;72.64
77381;BME280;66439;50.106;10.996;2023-04-16T09:20:12;98797.38;;;11.26;72.46
77381;BME280;66439;50.106;10.996;2023-04-16T09:22:15;98798.99;;;11.28;72.10
77381;BME280;66439;50.106;10.996;2023-04-16T09:24:22;98806.40;;;11.29;71.93
77381;BME280;66439;50.106;10.996;2023-04-16T09:26:30;98808.04;;;11.29;72.11
77381;BME280;66439;50.106;10.996;2023-04-16T09:28:41;98808.37;;;11.29;72.14
77381;BME280;66439;50.106;10.996;2023-04-16T09:30:45;98807.61;;;11.29;71.94
77381;BME280;66439;50.106;10.996;2023-04-16T09:32:48;98807.16;;;11.30;71.55
77381;BME280;66439;50.106;10.996;2023-04-16T09:34:57;98810.60;;;11.29;71.34
77381;BME280;66439;50.106;10.996;2023-04-16T09:37:16;98811.66;;;11.32;71.39
77381;BME280;66439;50.106;10.996;2023-04-16T09:39:21;98815.95;;;11.35;71.41
77381;BME280;66439;50.106;10.996;2023-04-16T09:41:34;98818.50;;;11.33;71.15
77381;BME280;66439;50.106;10.996;2023-04-16T09:43:48;98816.05;;;11.33;71.19
77381;BME280;66439;50.106;10.996;2023-04-16T09:45:53;98816.21;;;11.33;71.02
77381;BME280;66439;50.106;10.996;2023-04-16T09:48:01;98814.25;;;11.30;70.91
77381;BME280;66439;50.106;10.996;2023-04-16T09:50:18;98816.43;;;11.31;71.11
77381;BME280;66439;50.106;10.996;2023-04-16T09:52:21;98815.27;;;11.36;71.73
77381;BME280;66439;50.106;10.996;2023-04-16T09:54:28;98815.26;;;11.43;71.43
77381;BME280;66439;50.106;10.996;2023-04-16T09:56:31;98819.79;;;11.47;71.23
77381;BME280;66439;50.106;10.996;2023-04-16T09:58:40;98818.20;;;11.51;71.38
77381;BME280;66439;50.106;10.996;2023-04-16T10:00:43;98817.98;;;11.55;71.16
77381;BME280;66439;50.106;10.996;2023-04-16T10:02:46;98817.84;;;11.59;70.96
77381;BME280;66439;50.106;10.996;2023-04-16T10:04:52;98821.11;;;11.61;70.78
77381;BME280;66439;50.106;10.996;2023-04-16T10:07:05;98821.38;;;11.63;70.67
77381;BME280;66439;50.106;10.996;2023-04-16T10:09:08;98823.36;;;11.66;70.19
77381;BME280;66439;50.106;10.996;2023-04-16T10:11:14;98827.23;;;11.63;69.60
77381;BME280;66439;50.106;10.996;2023-04-16T10:13:17;98826.76;;;11.64;70.18
77381;BME280;66439;50.106;10.996;2023-04-16T10:15:40;98832.73;;;11.67;70.53
77381;BME280;66439;50.106;10.996;2023-04-16T10:17:45;98832.70;;;11.74;70.60
77381;BME280;66439;50.106;10.996;2023-04-16T10:19:49;98832.85;;;11.78;69.99
77381;BME280;66439;50.106;10.996;2023-04-16T10:21:54;98833.23;;;11.82;69.88
77381;BME280;66439;50.106;10.996;2023-04-16T10:23:57;98835.38;;;11.88;69.79
77381;BME280;66439;50.106;10.996;2023-04-16T10:26:03;98837.66;;;11.94;69.42
77381;BME280;66439;50.106;10.996;2023-04-16T10:28:08;98836.90;;;11.93;68.98
77381;BME280;66439;50.106;10.996;2023-04-16T10:30:13;98837.23;;;11.93;68.92
77381;BME280;66439;50.106;10.996;2023-04-16T10:32:21;98839.30;;;11.96;68.95
77381;BME280;66439;50.106;10.996;2023-04-16T10:34:28;98843.91;;;11.97;69.03
77381;BME280;66439;50.106;10.996;2023-04-16T10:36:36;98842.25;;;11.99;68.59
77381;BME280;66439;50.106;10.996;2023-04-16T10:38:59;98845.60;;;11.98;68.14
77381;BME280;66439;50.106;10.996;2023-04-16T10:41:05;98846.18;;;11.94;68.71
77381;BME280;66439;50.106;10.996;2023-04-16T10:43:16;98845.62;;;11.96;69.07
77381;BME280;66439;50.106;10.996;2023-04-16T10:45:26;98848.19;;;11.99;69.10
77381;BME280;66439;50.106;10.996;2023-04-16T10:47:30;98843.86;;;12.00;68.96
77381;BME280;66439;50.106;10.996;2023-04-16T10:49:35;98848.84;;;11.99;68.84
77381;BME280;66439;50.106;10.996;2023-04-16T10:51:38;98845.90;;;12.00;68.25
77381;BME280;66439;50.106;10.996;2023-04-16T10:53:43;98849.08;;;11.97;68.05
77381;BME280;66439;50.106;10.996;2023-04-16T10:55:56;98847.38;;;11.95;68.30
77381;BME280;66439;50.106;10.996;2023-04-16T10:57:59;98853.31;;;11.96;68.53
77381;BME280;66439;50.106;10.996;2023-04-16T11:00:21;98854.55;;;11.92;68.44
77381;BME280;66439;50.106;10.996;2023-04-16T11:02:45;98855.57;;;11.89;68.41
77381;BME280;66439;50.106;10.996;2023-04-16T11:04:55;98857.61;;;11.88;68.88